Time;durP1;ratioP1;P1;durP2;ratioP2;P2;SDS_P1;SDS_P2;PMS_P1;PMS_P2;Temp;Humidity;BMP_temperature;BMP_pressure;BME280_temperature;BME280_humidity;BME280_pressure;Samples;Min_cycle;Max_cycle;Signal;HPM_P1;HPM_P2
2023/07/25 00:01:40;;;;;;;3.83;3.50;;;18.80;99.90;;;;;;5033178;28;20340;-74
2023/07/25 00:04:08;;;;;;;3.92;3.42;;;18.70;99.90;;;;;;5035605;28;20215;-75
2023/07/25 00:06:34;;;;;;;3.58;3.28;;;18.70;99.90;;;;;;5034720;28;20296;-74
2023/07/25 00:09:01;;;;;;;3.28;2.97;;;18.70;99.90;;;;;;5033881;28;20850;-74
2023/07/25 00:11:28;;;;;;;3.45;3.05;;;18.70;99.90;;;;;;5035780;28;20701;-75
2023/07/25 00:13:57;;;;;;;3.90;3.08;;;18.70;99.90;;;;;;5032874;28;20226;-74
2023/07/25 00:16:24;;;;;;;3.30;3.00;;;18.70;99.90;;;;;;5030465;28;20302;-75
2023/07/25 00:18:51;;;;;;;3.50;3.20;;;18.70;99.90;;;;;;5034103;28;20306;-76
2023/07/25 00:21:18;;;;;;;3.30;3.10;;;18.70;99.90;;;;;;5030249;28;20219;-76
2023/07/25 00:23:45;;;;;;;2.90;2.70;;;18.70;99.90;;;;;;5031128;28;20199;-76
2023/07/25 00:26:12;;;;;;;3.25;2.80;;;18.60;99.90;;;;;;5034147;28;20907;-76
2023/07/25 00:28:39;;;;;;;3.08;2.80;;;18.70;99.90;;;;;;5036910;28;20226;-74
2023/07/25 00:31:10;;;;;;;3.70;3.30;;;18.70;99.90;;;;;;5034300;28;20251;-76
2023/07/25 00:33:37;;;;;;;3.47;3.17;;;18.70;99.90;;;;;;5033206;28;20252;-76
2023/07/25 00:36:04;;;;;;;3.47;3.17;;;18.60;99.90;;;;;;5035968;28;20290;-75
2023/07/25 00:38:31;;;;;;;3.47;3.17;;;18.60;99.90;;;;;;5031024;28;20322;-75
2023/07/25 00:40:58;;;;;;;3.35;3.05;;;18.60;99.90;;;;;;5039522;28;20264;-75
2023/07/25 00:43:25;;;;;;;2.85;2.55;;;18.60;99.90;;;;;;5041848;28;20294;-76
2023/07/25 00:45:52;;;;;;;2.90;2.70;;;18.70;99.90;;;;;;5043456;28;20953;-74
2023/07/25 00:48:20;;;;;;;3.22;2.92;;;18.70;99.90;;;;;;5036276;28;20289;-76
2023/07/25 00:50:47;;;;;;;4.38;3.28;;;18.70;99.90;;;;;;5041125;28;20268;-76
2023/07/25 00:53:16;;;;;;;3.42;3.17;;;18.70;99.90;;;;;;5038646;28;20230;-76
2023/07/25 00:55:44;;;;;;;4.25;3.13;;;18.70;99.90;;;;;;5042005;28;20745;-74
2023/07/25 00:58:11;;;;;;;3.22;2.92;;;18.70;99.90;;;;;;5039365;28;20261;-75
2023/07/25 01:00:39;;;;;;;3.53;3.22;;;18.70;99.90;;;;;;5041087;28;20242;-75
2023/07/25 01:03:06;;;;;;;3.50;3.20;;;18.70;99.90;;;;;;5039692;28;20210;-75
2023/07/25 01:05:39;;;;;;;3.47;3.17;;;18.70;99.90;;;;;;5040089;28;20620;-75
2023/07/25 01:08:06;;;;;;;3.65;3.35;;;18.70;99.90;;;;;;5041411;28;20331;-75
2023/07/25 01:10:34;;;;;;;4.20;3.25;;;18.70;99.90;;;;;;5045164;28;20288;-77
2023/07/25 01:13:01;;;;;;;3.47;3.17;;;18.60;99.90;;;;;;5040655;28;20455;-77
2023/07/25 01:15:29;;;;;;;3.50;3.20;;;18.60;99.90;;;;;;5041317;28;20207;-76
2023/07/25 01:17:56;;;;;;;3.05;2.85;;;18.60;99.90;;;;;;5040961;28;20199;-76
2023/07/25 01:20:24;;;;;;;3.55;3.25;;;18.60;99.90;;;;;;5044375;28;20226;-76
2023/07/25 01:22:54;;;;;;;3.30;3.00;;;18.60;99.90;;;;;;5043336;28;20282;-76
2023/07/25 01:25:22;;;;;;;3.95;3.40;;;18.60;99.90;;;;;;5041124;28;20231;-76
2023/07/25 01:27:49;;;;;;;3.35;3.00;;;18.60;99.90;;;;;;5043604;28;20286;-77
2023/07/25 01:30:16;;;;;;;3.33;3.03;;;18.60;99.90;;;;;;5043160;28;20242;-77
2023/07/25 01:32:43;;;;;;;3.50;3.20;;;18.60;99.90;;;;;;5038544;28;20688;-77
2023/07/25 01:35:10;;;;;;;3.75;3.40;;;18.60;99.90;;;;;;5045568;28;20227;-76
2023/07/25 01:37:37;;;;;;;3.50;3.20;;;18.60;99.90;;;;;;5045998;28;20274;-77
2023/07/25 01:40:04;;;;;;;4.40;4.00;;;18.60;99.90;;;;;;5042534;28;20258;-77
2023/07/25 01:42:32;;;;;;;4.22;3.70;;;18.60;99.90;;;;;;5043424;28;20211;-77
2023/07/25 01:44:59;;;;;;;3.80;3.47;;;18.50;99.90;;;;;;5042500;28;20293;-77
2023/07/25 01:47:26;;;;;;;4.55;4.00;;;18.50;99.90;;;;;;5045918;28;20282;-76
2023/07/25 01:49:53;;;;;;;14.85;4.88;;;18.40;99.90;;;;;;5039791;28;20228;-76
2023/07/25 01:52:20;;;;;;;4.13;3.67;;;18.40;99.90;;;;;;5046696;28;20230;-77
2023/07/25 01:54:49;;;;;;;4.28;3.88;;;18.30;99.90;;;;;;5038537;28;20253;-77
2023/07/25 01:57:17;;;;;;;6.00;4.22;;;18.30;99.90;;;;;;5040194;28;20290;-77
2023/07/25 01:59:45;;;;;;;4.72;4.32;;;18.20;99.90;;;;;;5043328;28;20222;-75
2023/07/25 02:02:12;;;;;;;3.85;3.55;;;18.10;99.90;;;;;;5036640;28;20301;-76
2023/07/25 02:04:39;;;;;;;4.57;4.15;;;18.10;99.90;;;;;;5041779;28;20248;-77
2023/07/25 02:07:06;;;;;;;3.50;3.20;;;18.00;99.90;;;;;;5039488;28;20286;-77
2023/07/25 02:09:33;;;;;;;4.18;3.83;;;18.10;99.90;;;;;;5042643;28;20229;-77
2023/07/25 02:12:01;;;;;;;4.30;3.90;;;18.10;99.90;;;;;;5040404;28;20286;-76
2023/07/25 02:14:28;;;;;;;5.57;4.75;;;18.00;99.90;;;;;;5039497;28;20208;-77
2023/07/25 02:16:56;;;;;;;4.55;3.88;;;18.00;99.90;;;;;;5042199;28;20635;-77
2023/07/25 02:19:23;;;;;;;4.60;4.20;;;17.90;99.90;;;;;;5039191;28;20234;-76
2023/07/25 02:21:50;;;;;;;4.20;3.80;;;18.00;99.90;;;;;;5040521;28;20231;-77
2023/07/25 02:24:17;;;;;;;4.38;3.97;;;18.00;99.90;;;;;;5041962;28;20237;-76
2023/07/25 02:26:44;;;;;;;4.10;3.75;;;18.00;99.90;;;;;;5039480;28;20203;-75
2023/07/25 02:29:10;;;;;;;4.22;3.83;;;18.00;99.90;;;;;;5042388;28;20203;-76
2023/07/25 02:31:37;;;;;;;3.97;3.58;;;18.10;99.90;;;;;;5035253;28;20215;-76
2023/07/25 02:34:06;;;;;;;4.00;3.70;;;18.10;99.90;;;;;;5044749;28;20290;-76
2023/07/25 02:36:33;;;;;;;4.80;3.95;;;18.20;99.90;;;;;;5040546;28;20239;-78
2023/07/25 02:39:00;;;;;;;3.60;3.30;;;18.20;99.90;;;;;;5043576;28;20264;-76
2023/07/25 02:41:26;;;;;;;3.20;2.97;;;18.20;99.90;;;;;;5038218;28;20278;-77
2023/07/25 02:43:53;;;;;;;3.10;2.90;;;18.30;99.90;;;;;;5043797;28;20286;-77
2023/07/25 02:46:20;;;;;;;3.92;3.60;;;18.30;99.90;;;;;;5036588;28;20261;-76
2023/07/25 02:48:47;;;;;;;3.50;3.20;;;18.30;99.90;;;;;;5042490;28;20306;-76
2023/07/25 02:51:15;;;;;;;3.65;3.35;;;18.30;99.90;;;;;;5040657;28;20781;-76
2023/07/25 02:53:42;;;;;;;3.40;3.08;;;18.30;99.90;;;;;;5042941;28;20202;-77
2023/07/25 02:56:09;;;;;;;3.45;3.15;;;18.30;99.90;;;;;;5034835;28;20290;-76
2023/07/25 02:58:36;;;;;;;129.70;8.60;;;18.30;99.90;;;;;;5039265;28;20290;-76
2023/07/25 03:01:03;;;;;;;137.50;9.88;;;18.20;99.90;;;;;;5041124;28;20309;-76
2023/07/25 03:03:30;;;;;;;19.92;5.97;;;18.00;99.90;;;;;;5033494;28;20203;-76
2023/07/25 03:05:57;;;;;;;83.35;7.30;;;17.80;99.90;;;;;;5044917;28;20248;-78
2023/07/25 03:08:25;;;;;;;5.65;4.63;;;17.70;99.90;;;;;;5038655;28;20286;-76
2023/07/25 03:10:52;;;;;;;40.72;5.85;;;17.70;99.90;;;;;;5040261;28;20219;-77
2023/07/25 03:13:19;;;;;;;12.98;4.68;;;17.70;99.90;;;;;;5034953;28;20448;-76
2023/07/25 03:15:46;;;;;;;5.07;4.30;;;17.70;99.90;;;;;;5041007;28;20203;-78
2023/07/25 03:18:13;;;;;;;3.90;3.50;;;17.60;99.90;;;;;;5035610;28;20284;-76
2023/07/25 03:20:40;;;;;;;4.82;4.32;;;17.60;99.90;;;;;;5038570;28;20823;-76
2023/07/25 03:23:07;;;;;;;4.97;4.20;;;17.70;99.90;;;;;;5038088;28;20203;-75
2023/07/25 03:25:35;;;;;;;4.65;4.25;;;17.70;99.90;;;;;;5035176;28;20226;-76
2023/07/25 03:28:02;;;;;;;5.25;4.75;;;17.70;99.90;;;;;;5039463;28;20199;-76
2023/07/25 03:30:29;;;;;;;8.43;4.55;;;17.60;99.90;;;;;;5037154;28;20219;-76
2023/07/25 03:32:56;;;;;;;7.97;6.50;;;17.50;99.90;;;;;;5036690;28;20637;-78
2023/07/25 03:35:23;;;;;;;9.00;7.80;;;17.40;99.90;;;;;;5038950;28;20262;-77
2023/07/25 03:37:50;;;;;;;10.02;7.43;;;17.40;99.90;;;;;;5044408;28;20661;-80
2023/07/25 03:40:17;;;;;;;91.07;11.32;;;17.30;99.90;;;;;;5042150;28;20223;-81
2023/07/25 03:42:45;;;;;;;11.02;6.28;;;17.30;99.90;;;;;;5038106;28;20265;-75
2023/07/25 03:45:12;;;;;;;6.90;5.75;;;17.30;99.90;;;;;;5039131;28;20280;-76
2023/07/25 03:47:39;;;;;;;13.55;4.97;;;17.20;99.90;;;;;;5036039;28;20203;-77
2023/07/25 03:50:07;;;;;;;6.05;5.45;;;17.20;99.90;;;;;;5041304;28;20804;-77
2023/07/25 03:52:34;;;;;;;6.35;5.78;;;17.20;99.90;;;;;;5039829;28;20296;-77
2023/07/25 03:55:01;;;;;;;6.88;6.18;;;17.20;99.90;;;;;;5040274;28;20269;-78
2023/07/25 03:57:28;;;;;;;6.38;4.80;;;17.20;99.90;;;;;;5039397;28;20199;-77
2023/07/25 03:59:56;;;;;;;2.60;2.40;;;17.30;99.90;;;;;;5043701;28;20219;-77
2023/07/25 04:02:23;;;;;;;160.32;10.55;;;17.40;99.90;;;;;;5040319;28;20237;-76
2023/07/25 04:04:50;;;;;;;779.08;32.28;;;17.50;99.90;;;;;;5041375;28;20260;-77
2023/07/25 04:07:17;;;;;;;1157.45;41.45;;;17.40;99.90;;;;;;5042449;28;20934;-77
2023/07/25 04:09:43;;;;;;;466.35;16.85;;;17.30;99.90;;;;;;5041829;28;20255;-78
2023/07/25 04:12:10;;;;;;;264.33;12.32;;;17.20;99.90;;;;;;5039693;28;20241;-78
2023/07/25 04:14:37;;;;;;;149.13;9.93;;;17.20;99.90;;;;;;5040779;28;20728;-77
2023/07/25 04:17:06;;;;;;;41.10;5.47;;;17.10;99.90;;;;;;5040233;28;20207;-82
2023/07/25 04:19:33;;;;;;;5.15;4.65;;;17.00;99.90;;;;;;5043898;28;20231;-80
2023/07/25 04:22:00;;;;;;;3.85;3.50;;;17.00;99.90;;;;;;5038065;28;20215;-79
2023/07/25 04:24:27;;;;;;;3.78;3.00;;;17.00;99.90;;;;;;5040660;28;20211;-81
2023/07/25 04:26:54;;;;;;;6.00;3.00;;;17.10;99.90;;;;;;5041709;28;20665;-80
2023/07/25 04:29:21;;;;;;;114.13;7.43;;;17.10;99.90;;;;;;5036850;28;20203;-79
2023/07/25 04:31:49;;;;;;;11.40;4.53;;;17.10;99.90;;;;;;5038805;28;20223;-76
2023/07/25 04:34:17;;;;;;;3.42;3.13;;;17.10;99.90;;;;;;5040276;28;20230;-77
2023/07/25 04:36:44;;;;;;;3.58;3.28;;;17.10;99.90;;;;;;5037343;28;20301;-80
2023/07/25 04:39:11;;;;;;;3.15;2.95;;;17.20;99.90;;;;;;5037299;28;20739;-78
2023/07/25 04:41:38;;;;;;;2.95;2.75;;;17.20;99.90;;;;;;5038249;28;20305;-77
2023/07/25 04:44:05;;;;;;;3.22;2.78;;;17.30;99.90;;;;;;5040498;28;20258;-79
2023/07/25 04:46:32;;;;;;;3.17;2.78;;;17.30;99.90;;;;;;5037320;28;20298;-78
2023/07/25 04:48:59;;;;;;;3.30;2.50;;;17.40;99.90;;;;;;5038291;28;20203;-78
2023/07/25 04:51:27;;;;;;;2.60;2.40;;;17.40;99.90;;;;;;5034351;28;21880;-76
2023/07/25 04:53:54;;;;;;;2.80;2.60;;;17.40;99.90;;;;;;5036398;28;20693;-75
2023/07/25 04:56:21;;;;;;;2.97;2.78;;;17.50;99.90;;;;;;5036191;28;20227;-76
2023/07/25 04:58:48;;;;;;;3.13;2.85;;;17.50;99.90;;;;;;5037883;28;20261;-76
2023/07/25 05:01:15;;;;;;;3.25;2.95;;;17.50;99.90;;;;;;5035182;28;20222;-77
2023/07/25 05:03:42;;;;;;;2.70;2.50;;;17.60;99.90;;;;;;5035134;28;20223;-80
2023/07/25 05:06:08;;;;;;;2.90;2.70;;;17.60;99.90;;;;;;5033266;28;20250;-76
2023/07/25 05:08:37;;;;;;;2.80;2.60;;;17.70;99.90;;;;;;5033039;28;20288;-79
2023/07/25 05:11:04;;;;;;;46.08;5.05;;;17.70;99.90;;;;;;5035641;28;20227;-76
2023/07/25 05:13:31;;;;;;;136.48;8.80;;;17.70;99.90;;;;;;5033560;28;20283;-75
2023/07/25 05:15:58;;;;;;;4.18;3.30;;;17.70;99.90;;;;;;5034167;28;20254;-79
2023/07/25 05:18:25;;;;;;;3.42;3.03;;;17.60;99.90;;;;;;5035801;28;20598;-76
2023/07/25 05:20:52;;;;;;;3.42;3.10;;;17.50;99.90;;;;;;5040211;28;20662;-80
2023/07/25 05:23:19;;;;;;;3.05;2.78;;;17.50;99.90;;;;;;5041749;28;20242;-79
2023/07/25 05:25:47;;;;;;;4.28;3.53;;;17.60;99.90;;;;;;5037059;28;20209;-76
2023/07/25 05:28:16;;;;;;;6.05;3.55;;;17.90;99.90;;;;;;5042908;28;20238;-76
2023/07/25 05:30:43;;;;;;;3.22;3.00;;;18.40;99.90;;;;;;5041575;28;20227;-79
2023/07/25 05:33:10;;;;;;;3.20;2.90;;;18.60;99.90;;;;;;5051144;28;20203;-75
2023/07/25 05:35:37;;;;;;;3.20;2.97;;;18.80;99.90;;;;;;5052460;28;20203;-75
2023/07/25 05:38:07;;;;;;;3.20;2.90;;;19.00;99.90;;;;;;5054979;28;20215;-75
2023/07/25 05:40:34;;;;;;;2.90;2.70;;;19.20;99.90;;;;;;5042567;28;20269;-75
2023/07/25 05:43:03;;;;;;;4.20;3.53;;;19.40;99.90;;;;;;5047811;28;20979;-75
2023/07/25 05:45:30;;;;;;;4.00;3.33;;;19.60;99.90;;;;;;5040503;28;20203;-75
2023/07/25 05:47:56;;;;;;;3.80;3.40;;;19.60;99.90;;;;;;5038756;28;20225;-75
2023/07/25 05:50:23;;;;;;;4.20;3.75;;;19.60;99.90;;;;;;5043729;28;20285;-74
2023/07/25 05:52:50;;;;;;;3.92;3.53;;;19.70;99.90;;;;;;5041908;28;20291;-75
2023/07/25 05:55:17;;;;;;;4.20;3.80;;;20.00;99.90;;;;;;5041864;28;20294;-75
2023/07/25 05:57:44;;;;;;;4.32;3.83;;;20.10;99.90;;;;;;5039895;28;20203;-74
2023/07/25 06:00:14;;;;;;;4.90;4.40;;;20.40;99.90;;;;;;5038489;28;20314;-75
2023/07/25 06:02:40;;;;;;;4.05;3.65;;;20.40;99.90;;;;;;5038445;28;20218;-75
2023/07/25 06:05:08;;;;;;;3.70;3.40;;;20.40;99.90;;;;;;5038128;28;20294;-74
2023/07/25 06:07:35;;;;;;;3.80;3.50;;;20.40;99.90;;;;;;5042401;28;20670;-75
2023/07/25 06:10:01;;;;;;;3.58;3.28;;;20.30;99.90;;;;;;5042229;28;20323;-75
2023/07/25 06:12:29;;;;;;;3.50;3.05;;;20.30;99.90;;;;;;5038035;28;20242;-76
2023/07/25 06:14:56;;;;;;;4.40;3.42;;;20.20;99.90;;;;;;5039685;28;20301;-74
2023/07/25 06:17:25;;;;;;;4.30;3.35;;;20.20;99.90;;;;;;5038659;28;20213;-75
2023/07/25 06:19:51;;;;;;;3.40;3.10;;;20.20;99.90;;;;;;5038046;28;20274;-75
2023/07/25 06:22:18;;;;;;;4.38;3.45;;;20.10;99.90;;;;;;5039222;28;20251;-73
2023/07/25 06:24:47;;;;;;;3.45;3.08;;;20.00;99.90;;;;;;5038223;28;20235;-76
2023/07/25 06:27:14;;;;;;;3.65;3.33;;;19.90;99.90;;;;;;5038015;28;20295;-75
2023/07/25 06:29:41;;;;;;;5.18;3.00;;;19.90;99.90;;;;;;5040969;28;20302;-75
2023/07/25 06:32:08;;;;;;;3.53;3.22;;;19.80;99.90;;;;;;5039209;28;20203;-76
2023/07/25 06:34:36;;;;;;;3.53;3.10;;;19.80;99.90;;;;;;5042338;28;20290;-76
2023/07/25 06:37:03;;;;;;;3.00;2.70;;;19.80;99.90;;;;;;5039120;28;20203;-76
2023/07/25 06:39:30;;;;;;;3.53;3.13;;;19.80;99.90;;;;;;5040204;28;20226;-75
2023/07/25 06:41:57;;;;;;;3.95;3.10;;;19.80;99.90;;;;;;5032561;28;20216;-77
2023/07/25 06:44:24;;;;;;;2.88;2.63;;;19.90;99.90;;;;;;5033372;28;20293;-75
2023/07/25 06:46:51;;;;;;;2.55;2.17;;;19.90;99.90;;;;;;5032710;28;20234;-76
2023/07/25 06:49:18;;;;;;;3.42;2.13;;;19.90;99.90;;;;;;5034808;28;20206;-75
2023/07/25 06:51:46;;;;;;;7.80;3.03;;;20.00;99.90;;;;;;5030138;28;20207;-75
2023/07/25 06:54:13;;;;;;;7.20;3.00;;;20.50;99.90;;;;;;5036409;28;20203;-75
2023/07/25 06:56:40;;;;;;;3.10;2.78;;;21.10;99.90;;;;;;5030536;28;20203;-75
2023/07/25 06:59:07;;;;;;;3.85;3.45;;;21.40;99.90;;;;;;5032247;28;20288;-76
2023/07/25 07:01:34;;;;;;;3.65;3.15;;;21.60;99.90;;;;;;5032866;28;20319;-75
2023/07/25 07:04:01;;;;;;;3.97;3.67;;;21.40;99.90;;;;;;5036970;28;20253;-76
2023/07/25 07:06:27;;;;;;;5.70;4.05;;;21.30;99.90;;;;;;5033310;28;20287;-76
2023/07/25 07:08:56;;;;;;;4.53;4.13;;;21.10;99.90;;;;;;5034486;28;20208;-77
2023/07/25 07:11:23;;;;;;;4.15;3.75;;;21.00;99.90;;;;;;5033933;28;20247;-75
2023/07/25 07:13:50;;;;;;;4.60;4.20;;;21.00;99.90;;;;;;5034573;28;20269;-76
2023/07/25 07:16:17;;;;;;;4.05;3.65;;;21.10;99.90;;;;;;5033062;28;20199;-75
2023/07/25 07:18:45;;;;;;;3.67;3.35;;;21.40;99.90;;;;;;5031703;28;20286;-76
2023/07/25 07:21:12;;;;;;;4.32;3.80;;;21.60;99.90;;;;;;5033552;28;20763;-76
2023/07/25 07:23:39;;;;;;;5.18;3.65;;;21.80;99.90;;;;;;5031173;28;20223;-76
2023/07/25 07:26:07;;;;;;;4.75;3.80;;;21.90;99.90;;;;;;5035382;28;20693;-77
2023/07/25 07:28:34;;;;;;;4.03;3.63;;;22.00;99.90;;;;;;5032344;28;20203;-75
2023/07/25 07:31:01;;;;;;;4.78;3.88;;;22.10;99.90;;;;;;5038152;28;20305;-76
2023/07/25 07:33:30;;;;;;;4.40;3.88;;;22.30;99.90;;;;;;5033596;28;20761;-77
2023/07/25 07:35:57;;;;;;;5.28;4.55;;;22.20;99.90;;;;;;5037944;28;20804;-76
2023/07/25 07:38:24;;;;;;;4.20;3.70;;;22.00;99.90;;;;;;5033825;28;20294;-76
2023/07/25 07:40:50;;;;;;;3.70;3.40;;;21.60;99.90;;;;;;5034539;28;20825;-76
2023/07/25 07:43:19;;;;;;;6.78;4.40;;;21.20;99.90;;;;;;5033221;28;20248;-75
2023/07/25 07:45:47;;;;;;;4.45;4.05;;;20.80;99.90;;;;;;5034045;28;20936;-76
2023/07/25 07:48:14;;;;;;;4.30;3.90;;;20.50;99.90;;;;;;5034780;28;20206;-76
2023/07/25 07:50:41;;;;;;;4.50;4.10;;;20.20;99.90;;;;;;5033049;28;20214;-75
2023/07/25 07:53:08;;;;;;;4.55;4.15;;;20.10;99.90;;;;;;5034201;28;20195;-75
2023/07/25 07:55:35;;;;;;;5.43;4.32;;;20.00;99.90;;;;;;5035194;28;20281;-76
2023/07/25 07:58:02;;;;;;;6.45;4.63;;;19.90;99.90;;;;;;5035384;28;20256;-76
2023/07/25 08:00:32;;;;;;;5.43;4.28;;;19.70;99.90;;;;;;5034293;28;20219;-77
2023/07/25 08:02:59;;;;;;;6.15;5.07;;;19.60;99.90;;;;;;5035349;28;20302;-75
2023/07/25 08:05:26;;;;;;;4.50;4.10;;;19.50;99.90;;;;;;5035303;28;20249;-75
2023/07/25 08:07:53;;;;;;;6.20;3.92;;;19.40;99.90;;;;;;5034627;28;20207;-77
2023/07/25 08:10:21;;;;;;;4.32;3.90;;;19.40;99.90;;;;;;5038142;28;20268;-75
2023/07/25 08:12:48;;;;;;;4.70;4.00;;;19.50;99.90;;;;;;5034452;28;20207;-75
2023/07/25 08:15:15;;;;;;;4.70;4.20;;;19.50;99.90;;;;;;5040041;28;20292;-76
2023/07/25 08:17:43;;;;;;;3.90;3.55;;;19.60;99.90;;;;;;5032872;28;20238;-76
2023/07/25 08:20:13;;;;;;;3.70;3.40;;;19.70;99.90;;;;;;5036207;28;20322;-76
2023/07/25 08:22:40;;;;;;;3.90;3.60;;;19.80;99.90;;;;;;5033604;28;20215;-76
2023/07/25 08:25:08;;;;;;;3.40;3.10;;;19.90;99.90;;;;;;5033344;28;20730;-76
2023/07/25 08:27:35;;;;;;;3.92;3.10;;;20.10;99.90;;;;;;5031373;28;20628;-76
2023/07/25 08:30:01;;;;;;;4.07;3.10;;;20.30;99.90;;;;;;5032038;28;20277;-76
2023/07/25 08:32:28;;;;;;;4.85;3.65;;;20.30;99.90;;;;;;5028339;28;20199;-75
2023/07/25 08:34:56;;;;;;;3.80;3.45;;;20.20;99.90;;;;;;5030967;28;20194;-75
2023/07/25 08:37:25;;;;;;;3.83;3.42;;;20.20;99.90;;;;;;5030528;28;20285;-75
2023/07/25 08:39:51;;;;;;;3.53;3.22;;;20.20;99.90;;;;;;5031800;28;20940;-78
2023/07/25 08:42:20;;;;;;;5.25;3.90;;;20.30;99.90;;;;;;5031558;28;20246;-76
2023/07/25 08:44:51;;;;;;;4.50;4.10;;;20.40;99.90;;;;;;5029592;28;20565;-75
2023/07/25 08:47:23;;;;;;;4.18;3.78;;;20.30;99.90;;;;;;5031815;28;20208;-76
2023/07/25 08:49:54;;;;;;;4.50;4.10;;;20.30;99.90;;;;;;5034642;28;20981;-75
2023/07/25 08:52:25;;;;;;;4.00;3.70;;;20.30;99.90;;;;;;5028715;28;20199;-76
2023/07/25 08:54:52;;;;;;;4.40;3.45;;;20.20;99.90;;;;;;5032526;28;20203;-75
2023/07/25 08:57:21;;;;;;;5.45;3.90;;;20.30;99.90;;;;;;5031658;28;20301;-75
2023/07/25 08:59:49;;;;;;;3.70;3.40;;;20.40;99.90;;;;;;5027834;28;20772;-76
2023/07/25 09:02:18;;;;;;;4.10;3.70;;;20.50;99.90;;;;;;5035761;28;20226;-76
2023/07/25 09:04:46;;;;;;;3.70;3.40;;;20.50;99.90;;;;;;5036801;28;20207;-75
2023/07/25 09:07:13;;;;;;;3.42;3.10;;;20.60;99.90;;;;;;5041040;28;20219;-75
2023/07/25 09:09:41;;;;;;;4.05;3.67;;;20.70;99.90;;;;;;5037354;28;20297;-76
2023/07/25 09:12:09;;;;;;;4.30;3.63;;;20.70;99.90;;;;;;5036054;28;20195;-77
2023/07/25 09:14:38;;;;;;;6.85;3.83;;;20.90;99.90;;;;;;5034485;28;20210;-77
2023/07/25 09:17:05;;;;;;;4.75;3.60;;;21.30;99.90;;;;;;5031304;28;20231;-76
2023/07/25 09:19:33;;;;;;;3.50;3.20;;;21.90;99.90;;;;;;5034353;28;20203;-77
2023/07/25 09:22:00;;;;;;;3.97;3.58;;;22.40;99.90;;;;;;5035990;28;20218;-75
2023/07/25 09:24:36;;;;;;;4.25;3.33;;;22.90;99.90;;;;;;5036730;28;20218;-77
2023/07/25 09:27:05;;;;;;;4.05;3.65;;;23.40;99.90;;;;;;5034812;28;20720;-76
2023/07/25 09:29:37;;;;;;;4.22;3.40;;;23.80;99.90;;;;;;5035413;28;20205;-75
2023/07/25 09:32:18;;;;;;;3.00;2.80;;;23.80;99.90;;;;;;5038084;28;20286;-77
2023/07/25 09:34:45;;;;;;;3.38;3.00;;;23.90;99.90;;;;;;5036348;28;20563;-75
2023/07/25 09:37:12;;;;;;;5.07;3.22;;;24.00;99.90;;;;;;5038376;28;20629;-76
2023/07/25 09:39:39;;;;;;;4.05;3.03;;;24.00;99.90;;;;;;5034440;28;20239;-78
2023/07/25 09:42:08;;;;;;;4.95;3.20;;;24.30;99.90;;;;;;5037117;28;20313;-76
2023/07/25 09:44:35;;;;;;;3.47;2.97;;;24.70;99.90;;;;;;5033019;28;20203;-76
2023/07/25 09:47:02;;;;;;;3.15;2.85;;;24.70;99.90;;;;;;5041048;28;20205;-76
2023/07/25 09:49:29;;;;;;;4.47;2.65;;;24.60;99.90;;;;;;5029321;28;20304;-76
2023/07/25 09:51:59;;;;;;;3.63;3.28;;;24.70;99.90;;;;;;5034942;28;20199;-77
2023/07/25 09:54:26;;;;;;;3.08;2.70;;;24.80;99.90;;;;;;5032034;28;20673;-76
2023/07/25 09:56:54;;;;;;;3.00;2.70;;;24.90;99.90;;;;;;5034307;28;20305;-76
2023/07/25 09:59:23;;;;;;;2.58;2.38;;;25.10;99.90;;;;;;5035055;28;20304;-78
2023/07/25 10:01:51;;;;;;;3.25;2.28;;;25.10;99.90;;;;;;5032556;28;20203;-75
2023/07/25 10:04:18;;;;;;;3.28;2.72;;;25.20;99.90;;;;;;5037742;28;20250;-76
2023/07/25 10:06:46;;;;;;;3.00;2.40;;;25.20;99.90;;;;;;5036967;28;20203;-75
2023/07/25 10:09:14;;;;;;;2.33;2.13;;;25.10;99.90;;;;;;5037906;28;20288;-78
2023/07/25 10:11:42;;;;;;;2.85;2.65;;;25.40;99.90;;;;;;5035322;28;20293;-77
2023/07/25 10:14:09;;;;;;;3.75;2.58;;;25.50;99.90;;;;;;5037304;28;20203;-75
2023/07/25 10:16:39;;;;;;;2.40;2.20;;;25.60;99.90;;;;;;5036737;28;20207;-76
2023/07/25 10:19:07;;;;;;;3.78;2.90;;;25.50;99.90;;;;;;5031678;28;20199;-76
2023/07/25 10:21:47;;;;;;;4.68;2.50;;;25.50;99.90;;;;;;5030434;28;20262;-75
2023/07/25 10:24:14;;;;;;;3.25;2.50;;;25.40;99.90;;;;;;5032836;28;20785;-76
2023/07/25 10:26:54;;;;;;;2.38;2.10;;;25.40;99.90;;;;;;5035066;28;20199;-75
2023/07/25 10:29:41;;;;;;;3.25;2.60;;;25.40;99.90;;;;;;5031073;28;20253;-75
2023/07/25 10:32:13;;;;;;;2.45;2.22;;;25.50;99.90;;;;;;5031457;28;20992;-75
2023/07/25 10:34:51;;;;;;;3.90;2.40;;;25.60;99.90;;;;;;5031225;28;20284;-76
2023/07/25 10:37:27;;;;;;;2.83;2.47;;;25.80;99.90;;;;;;5030069;28;20848;-76
2023/07/25 10:40:08;;;;;;;2.03;1.90;;;26.00;99.90;;;;;;5029796;28;20309;-75
2023/07/25 10:42:49;;;;;;;2.50;2.30;;;26.20;99.90;;;;;;5028465;28;20231;-76
2023/07/25 10:45:43;;;;;;;2.22;2.03;;;26.20;99.90;;;;;;5027992;28;20203;-76
2023/07/25 10:48:33;;;;;;;2.67;2.47;;;26.30;99.90;;;;;;5032034;28;20508;-76
2023/07/25 10:51:02;;;;;;;2.80;2.40;;;26.50;99.90;;;;;;5032115;28;20845;-75
2023/07/25 10:53:29;;;;;;;2.45;2.10;;;26.60;99.90;;;;;;5028748;28;20203;-76
2023/07/25 10:56:09;;;;;;;3.35;2.33;;;26.70;99.90;;;;;;5035103;28;20653;-76
2023/07/25 10:58:38;;;;;;;2.60;2.40;;;26.60;99.90;;;;;;5030643;28;20293;-76
2023/07/25 11:01:06;;;;;;;2.17;2.00;;;26.50;99.90;;;;;;5032048;28;20816;-75
2023/07/25 11:03:35;;;;;;;2.45;2.20;;;26.60;99.90;;;;;;5033321;28;20383;-77
2023/07/25 11:06:40;;;;;;;2.33;2.00;;;26.40;99.90;;;;;;5030617;28;20210;-76
2023/07/25 11:09:12;;;;;;;2.10;1.90;;;26.60;99.90;;;;;;5029740;28;20207;-75
2023/07/25 11:11:46;;;;;;;2.45;2.05;;;26.70;99.90;;;;;;5030117;28;20226;-76
2023/07/25 11:14:17;;;;;;;2.45;2.20;;;26.90;99.90;;;;;;5036594;28;20191;-75
2023/07/25 11:16:45;;;;;;;1.80;1.70;;;26.90;99.90;;;;;;5033269;28;20203;-77
2023/07/25 11:19:14;;;;;;;2.25;1.83;;;26.70;99.90;;;;;;5033249;28;20319;-75
2023/07/25 11:21:42;;;;;;;2.10;1.90;;;26.80;99.90;;;;;;5032430;28;20226;-76
2023/07/25 11:24:11;;;;;;;2.60;2.10;;;27.10;99.90;;;;;;5030562;28;20302;-75
2023/07/25 11:26:38;;;;;;;2.10;1.90;;;27.20;99.90;;;;;;5032969;28;20840;-75
2023/07/25 11:29:06;;;;;;;3.15;2.08;;;27.20;99.90;;;;;;5028661;28;20323;-75
2023/07/25 11:31:33;;;;;;;2.20;2.00;;;27.20;99.90;;;;;;5026135;28;20223;-76
2023/07/25 11:34:10;;;;;;;1.83;1.73;;;27.10;99.90;;;;;;5028255;28;20215;-75
2023/07/25 11:36:39;;;;;;;2.83;2.08;;;27.20;99.90;;;;;;5031720;28;20292;-76
2023/07/25 11:39:07;;;;;;;3.35;2.15;;;27.10;99.90;;;;;;5030683;28;20191;-77
2023/07/25 11:41:34;;;;;;;2.28;2.08;;;26.90;99.90;;;;;;5031029;28;20231;-75
2023/07/25 11:44:05;;;;;;;3.22;2.20;;;27.10;99.90;;;;;;5029614;28;20298;-76
2023/07/25 11:46:33;;;;;;;2.70;2.00;;;27.10;99.90;;;;;;5029825;28;20583;-74
2023/07/25 11:49:00;;;;;;;2.20;2.00;;;26.90;99.90;;;;;;5030780;28;20203;-77
2023/07/25 11:51:28;;;;;;;3.15;2.45;;;26.90;99.90;;;;;;5031796;28;20246;-74
2023/07/25 11:53:57;;;;;;;2.00;1.80;;;27.10;99.90;;;;;;5030013;28;21014;-75
2023/07/25 11:56:25;;;;;;;3.63;2.10;;;27.20;99.90;;;;;;5030406;28;20278;-76
2023/07/25 11:58:52;;;;;;;2.42;2.17;;;27.20;99.90;;;;;;5042614;28;20546;-74
2023/07/25 12:01:19;;;;;;;1.63;1.52;;;27.10;99.90;;;;;;5030126;28;20231;-75
2023/07/25 12:03:48;;;;;;;2.53;1.77;;;27.20;99.90;;;;;;5027470;28;20309;-76
2023/07/25 12:06:16;;;;;;;2.33;2.13;;;27.50;99.90;;;;;;5032104;28;20199;-75
2023/07/25 12:08:44;;;;;;;2.30;2.10;;;27.60;99.90;;;;;;5031175;28;20217;-75
2023/07/25 12:11:14;;;;;;;2.50;2.30;;;27.50;99.90;;;;;;5032919;28;20842;-75
2023/07/25 12:13:46;;;;;;;1.95;1.85;;;27.50;99.90;;;;;;5030524;28;20259;-76
2023/07/25 12:16:31;;;;;;;1.90;1.80;;;27.40;99.90;;;;;;5028495;28;21016;-76
2023/07/25 12:19:00;;;;;;;3.45;2.22;;;27.40;99.90;;;;;;5032916;28;20199;-75
2023/07/25 12:21:28;;;;;;;2.40;1.88;;;27.50;99.90;;;;;;5032763;28;20297;-76
2023/07/25 12:23:57;;;;;;;2.55;1.88;;;27.70;99.90;;;;;;5030407;28;20310;-76
2023/07/25 12:26:26;;;;;;;2.60;2.40;;;27.90;99.90;;;;;;5028386;28;20286;-75
2023/07/25 12:28:54;;;;;;;3.55;2.15;;;28.10;99.90;;;;;;5033902;28;20226;-75
2023/07/25 12:31:22;;;;;;;2.42;2.22;;;27.90;99.90;;;;;;5029784;28;20222;-74
2023/07/25 12:33:51;;;;;;;2.22;1.98;;;27.90;99.90;;;;;;5030315;28;20195;-75
2023/07/25 12:36:19;;;;;;;2.25;1.80;;;27.90;99.90;;;;;;5029101;28;20289;-74
2023/07/25 12:38:46;;;;;;;1.90;1.80;;;28.00;99.90;;;;;;5030619;28;20231;-75
2023/07/25 12:41:13;;;;;;;2.17;1.98;;;27.90;99.90;;;;;;5029685;28;20306;-74
2023/07/25 12:43:42;;;;;;;2.60;2.05;;;27.80;99.90;;;;;;5029713;28;20211;-75
2023/07/25 12:46:09;;;;;;;2.00;1.90;;;27.70;99.90;;;;;;5031022;28;20708;-74
2023/07/25 12:48:36;;;;;;;2.17;1.98;;;27.80;99.90;;;;;;5032033;28;20204;-75
2023/07/25 12:51:04;;;;;;;2.47;2.28;;;28.00;99.90;;;;;;5029797;28;20306;-75